Hallandale, FL (33008)

1:59 AM EDT on September 01, 2015 (GMT -0400)
Hollywood (City Hall area) | | Change Station
CLOSE
Current Station
Personal Weather Station
Location: Hollywood, FL
Elevation: 39 ft
Nearby Weather Stations

Elev 39 ft 26.01 °N, 80.16 °W | Updated 57 seconds ago

Partly Cloudy
Partly Cloudy
81.1 °F
Feels Like 87 °F
N
0.0
Wind Variable Wind from NW
Gusts 0.0 mph

Today
High -- | Low -- °F
--% Chance of Precip.
Yesterday
High -- | Low -- °F
Precip. -- in
7:00 AM 7:40 PM
Waning Gibbous, 91% visible
Pressure 30.05 in
Visibility 10.0 miles
Clouds Few 2300 ft
Few 25000 ft
Heat Index 87 °F
Dew Point 76 °F
Humidity 84%
Rainfall 0.00 in
Snow Depth Not available.
UV 0 out of 12
Pollen 3.30 out of 12
Air Quality Not available.
Flu Activity Not available.
METAR KFLL 010553Z 00000KT 10SM FEW023 FEW250 26/24 A3005 RMK AO2 SLP175 T02610239 10289 20261 58010 $
Pressure 30.05 in
Visibility 10.0 miles
Clouds Few 2300 ft
Few 25000 ft
Heat Index 87 °F
Dew Point 76 °F
Humidity 84%
Rainfall 0.00 in
Snow Depth Not available.
UV 0 out of 12
Pollen 3.30 out of 12
Air Quality Not available.
Flu Activity Not available.
METAR KFLL 010553Z 00000KT 10SM FEW023 FEW250 26/24 A3005 RMK AO2 SLP175 T02610239 10289 20261 58010 $

10-Day Weather Forecast

×

Almanac

Astronomy

Sep. 01, 2015 Rise Set
Actual Time
Civil Twilight
Nautical Twilight
Astronomical Twilight
Moon
Length of Visible Light
Length of Day
Tomorrow will be .
, % of the Moon is Illuminated

Today's Extremes

State Highs State Lows

Community

WunderPhotos

Upload Photos

1,851,484 photos uploaded!

WunderBlogs® & News

Nearby

Air Quality

  Air Quality AQ Index Pollutant
Not available.

Snow Depth

Station Depth Elevation

Earthquake Activity

City Distance Mag. Time & Date
Minimum magnitude displayed is 2.5.

Coastal Water Temperatures

Place Temperature

Stations

Nearby Weather Stations

Station Location Temp. Windchill Dew Point Humidity Wind Precip. Elev Updated Type